createdAt,value
2022-11-29T02:26:11.418Z,9.50
2022-11-29T02:29:15.932Z,14.60
2022-11-29T02:31:58.112Z,7.00
2022-11-29T02:35:07.553Z,6.90
2022-11-29T02:37:53.871Z,7.20
2022-11-29T02:40:46.000Z,9.00
2022-11-29T02:49:45.665Z,8.90
2022-11-29T02:55:05.367Z,7.10
2022-11-29T02:57:36.698Z,7.90
2022-11-29T03:00:10.061Z,9.60
2022-11-29T03:02:57.829Z,7.20
2022-11-29T03:06:06.166Z,8.00
2022-11-29T03:11:45.751Z,6.50
2022-11-29T03:14:27.222Z,6.00
2022-11-29T03:16:59.956Z,8.80
2022-11-29T03:19:27.056Z,7.90
2022-11-29T03:22:04.008Z,6.30
2022-11-29T03:25:03.054Z,5.70
2022-11-29T03:27:46.893Z,7.60
2022-11-29T03:30:17.175Z,8.10
2022-11-29T03:33:21.870Z,7.80
2022-11-29T03:36:08.888Z,7.30
2022-11-29T03:38:40.604Z,8.50
2022-11-29T03:41:15.858Z,8.40
2022-11-29T03:44:04.015Z,7.00
2022-11-29T03:46:42.460Z,5.90
2022-11-29T03:49:16.950Z,7.10
2022-11-29T03:51:55.786Z,8.70
2022-11-29T03:54:26.496Z,9.00
2022-11-29T03:56:54.094Z,11.20
2022-11-29T03:59:36.700Z,6.00
2022-11-29T04:02:10.158Z,10.00
2022-11-29T04:05:05.502Z,11.50
2022-11-29T04:08:10.329Z,7.30
2022-11-29T04:10:47.788Z,6.10
2022-11-29T04:13:35.656Z,5.70
2022-11-29T04:16:24.271Z,8.40
2022-11-29T04:19:16.074Z,5.90
2022-11-29T04:22:05.373Z,8.10
2022-11-29T04:25:04.121Z,13.40
2022-11-29T04:28:06.760Z,10.00
2022-11-29T04:30:43.225Z,9.60
2022-11-29T04:33:34.643Z,9.30
2022-11-29T04:36:32.556Z,7.70
2022-11-29T04:39:24.307Z,12.60
2022-11-29T04:41:57.326Z,9.80
2022-11-29T04:44:36.128Z,9.40
2022-11-29T04:47:37.775Z,10.30
2022-11-29T04:50:13.327Z,10.20
2022-11-29T04:52:43.258Z,10.00
2022-11-29T04:55:29.228Z,12.10
2022-11-29T04:58:02.052Z,7.30
2022-11-29T05:00:29.229Z,8.20
2022-11-29T05:02:58.198Z,7.10
2022-11-29T05:05:37.615Z,8.10
2022-11-29T05:08:29.220Z,7.60
2022-11-29T05:11:25.010Z,6.90
2022-11-29T05:14:18.009Z,7.80
2022-11-29T05:16:48.641Z,6.80
2022-11-29T05:19:28.693Z,8.30
2022-11-29T05:22:33.580Z,6.90
2022-11-29T05:25:19.115Z,7.20
2022-11-29T05:28:10.556Z,8.30
2022-11-29T05:31:16.600Z,9.90
2022-11-29T05:34:12.597Z,8.80
2022-11-29T05:36:46.816Z,9.00
2022-11-29T05:39:19.708Z,14.50
2022-11-29T05:41:54.284Z,12.50
2022-11-29T05:44:37.069Z,10.00
2022-11-29T05:47:10.171Z,8.10
2022-11-29T11:40:47.660Z,22.80
2022-11-29T11:43:20.445Z,16.40
2022-11-29T11:45:53.753Z,16.50
2022-11-29T11:48:20.678Z,16.40
2022-11-29T11:50:52.957Z,11.10
2022-11-29T11:53:30.094Z,13.70
2022-11-29T11:56:00.205Z,17.30
2022-11-29T11:58:37.988Z,16.10
2022-11-29T12:01:23.509Z,15.30
2022-11-29T12:04:06.730Z,15.80
2022-11-29T12:06:34.209Z,14.70
2022-11-29T12:09:25.324Z,14.30
2022-11-29T12:12:20.407Z,13.40
2022-11-29T12:15:03.120Z,8.20
2022-11-29T12:17:53.415Z,12.20
2022-11-29T12:20:58.742Z,20.20
2022-11-29T12:23:44.438Z,16.20
2022-11-29T12:26:56.585Z,12.70
2022-11-29T12:29:22.480Z,12.30
2022-11-29T12:32:01.793Z,10.20
2022-11-29T12:34:47.859Z,11.30
2022-11-29T12:43:48.872Z,8.20
2022-11-29T12:53:54.663Z,13.30
2022-11-29T12:56:34.094Z,14.00
2022-11-29T12:59:08.374Z,13.70
2022-11-29T13:01:44.595Z,13.00
2022-11-29T13:07:05.760Z,15.80
2022-11-29T13:09:53.156Z,12.20
2022-11-29T13:12:29.255Z,15.50
2022-11-29T13:14:59.456Z,14.80
2022-11-29T13:17:44.789Z,13.30
2022-11-29T13:20:18.287Z,14.80
2022-11-29T13:22:56.975Z,13.10
2022-11-29T13:25:26.634Z,18.10
2022-11-29T13:30:26.457Z,11.30
2022-11-29T13:33:21.084Z,16.60
2022-11-29T13:36:12.100Z,14.80
2022-11-29T13:39:07.205Z,14.10
2022-11-29T13:41:51.284Z,13.80
2022-11-29T13:44:38.538Z,10.40
2022-11-29T13:47:12.801Z,12.60
2022-11-29T13:50:05.723Z,12.80
2022-11-29T13:52:41.093Z,18.60
2022-11-29T13:55:11.488Z,13.20
2022-11-29T18:34:29.992Z,16.50
2022-11-29T18:36:57.043Z,11.60
2022-11-29T18:39:25.084Z,12.00
2022-11-29T18:41:52.193Z,10.40
2022-11-29T18:44:20.246Z,12.10
2022-11-29T18:46:47.377Z,12.20
2022-11-29T18:49:15.659Z,12.10
2022-11-29T18:51:44.776Z,13.80
2022-11-29T18:56:39.249Z,15.40
2022-11-29T18:59:10.255Z,13.90
2022-11-29T19:01:41.228Z,13.80
2022-11-29T19:04:12.873Z,10.60
2022-11-29T19:06:41.662Z,9.50
2022-11-29T19:09:12.420Z,7.80
2022-11-29T19:11:39.618Z,10.20
2022-11-29T19:14:11.530Z,12.80
2022-11-29T19:16:40.799Z,12.90
2022-11-29T19:19:07.930Z,16.10
2022-11-29T19:21:34.816Z,13.90
2022-11-29T19:24:04.035Z,16.50
2022-11-29T19:26:31.701Z,19.50
2022-11-29T19:29:00.240Z,17.40
2022-11-29T19:31:27.461Z,12.30
2022-11-29T19:33:54.864Z,10.70
2022-11-29T19:36:24.352Z,10.60
2022-11-29T19:38:53.777Z,10.40
2022-11-29T19:41:32.408Z,12.10
2022-11-29T19:44:00.645Z,11.30
2022-11-29T19:46:32.589Z,11.10
2022-11-29T19:49:00.026Z,15.20
2022-11-29T19:51:27.312Z,13.00
2022-11-29T19:53:56.227Z,14.50
2022-11-29T19:56:23.457Z,14.20
2022-11-29T19:58:50.544Z,11.00
2022-11-29T20:01:52.824Z,10.00
2022-11-29T20:04:21.482Z,11.40
2022-11-29T20:06:49.014Z,11.70
2022-11-29T20:09:16.780Z,9.40
2022-11-29T20:11:45.060Z,11.80
2022-11-29T20:14:12.926Z,13.30
2022-11-29T20:16:40.415Z,12.50
2022-11-29T20:19:10.556Z,12.60
2022-11-29T20:21:43.298Z,14.30
2022-11-29T20:24:11.221Z,11.90
2022-11-29T20:26:58.022Z,10.90
2022-11-29T20:29:30.531Z,14.90
2022-11-29T20:31:57.481Z,14.60
2022-11-29T20:34:24.924Z,12.10
2022-11-29T20:37:30.313Z,12.80
2022-11-29T20:40:01.427Z,14.40
2022-11-29T20:43:11.875Z,16.40
2022-11-29T20:45:39.497Z,17.70
2022-11-29T20:48:17.242Z,13.20
2022-11-29T20:50:45.922Z,12.60
2022-11-29T20:53:30.478Z,13.30
2022-11-29T20:55:58.963Z,15.00
2022-11-29T20:58:26.618Z,12.00
2022-11-29T21:00:54.786Z,14.40
2022-11-29T21:03:22.500Z,11.90
2022-11-29T21:05:49.944Z,12.90
2022-11-29T21:08:17.372Z,7.70
2022-11-29T21:10:45.617Z,15.60
2022-11-29T21:13:13.094Z,18.50
2022-11-29T21:15:40.758Z,14.50
2022-11-29T21:18:08.617Z,15.50
2022-11-29T21:20:35.602Z,16.60
2022-11-29T21:23:26.687Z,14.60
2022-11-29T21:25:56.386Z,13.20
2022-11-29T21:28:25.576Z,14.10
2022-11-29T21:30:52.828Z,14.80
2022-11-29T21:33:20.204Z,13.80
2022-11-29T21:35:54.384Z,15.00
2022-11-29T21:38:22.841Z,11.20
2022-11-29T21:40:52.024Z,9.20
2022-11-29T21:43:20.694Z,8.50
2022-11-29T21:45:49.852Z,10.50
2022-11-29T21:48:35.153Z,10.50
